VATSIM Germany Forum

Zurück   VATSIM Germany Forum > Community > Events

Events Ankündigungen von Events, Checkouts, TV-Terminen, usw.

Antwort
 
LinkBack Themen-Optionen Ansicht
Alt 2018-11-07, 09:58   #471 (permalink)
 
Benutzerbild von Steffen Butenschön
 
Registriert seit: 2013-01-03
Ort: bei Berlin
Beiträge: 173
Danke erteilt: 414
457 Danksagungen in 130 Beiträgen erhalten
Standard



Michaels Mittwoch

Heute laden wir herzlich zum CPT nach München ein!
Bringt Michael ins Schwitzen und helft ihm dabei sein S3 Rating zu erhalten.
Begleitendes Wetter haben wir wie folgt bestellt:

2018/11/07 08:20
EDDM 070820Z 05003KT 010V080 9000 4000NE BCFG FEW001 07/07 Q1012 NOSIG

2018/11/07 06:27
TAF EDDM 070500Z 0706/0812 VRB03KT CAVOK
BECMG 0718/0721 3000 BCFG PROB30
TEMPO 0723/0805 0800 FG
BECMG 0805/0807 7000

Es bietet sich heute die Möglichkeit zum CPT Hopping : Kollege Jakob wird auf Wien Radar geprüft.

Bis später!

Eure München Crew
Steffen Butenschön ist offline   Mit Zitat antworten
Alt 2018-11-14, 09:49   #472 (permalink)
 
Benutzerbild von Steffen Butenschön
 
Registriert seit: 2013-01-03
Ort: bei Berlin
Beiträge: 173
Danke erteilt: 414
457 Danksagungen in 130 Beiträgen erhalten
Standard

Am Mittwoch nach München

Mit Freude denken wir noch an den letzten Samstag. Ein tolles und sehr gut frequentiertes
Event zwischen Amsterdam und München. Das Wetter wurde zum Ende immer mehr zur
Herausforderung. Man könnte meinen seit dem hätte sich nicht viel verändert:

2018/11/14 08:20
EDDM 140820Z 09006KT 0300 R08L/0325N R08R/0325N FG VV/// 03/03 Q1031 NOSIG

2018/11/14 06:27
TAF EDDM 140500Z 1406/1512 VRB02KT 0700 FG VV002
TEMPO 1406/1408 0400 FZFG VV001
BECMG 1408/1410 09005KT 2500 BR
BECMG 1410/1412 5000 BR OVC005 PROB30
TEMPO 1412/1418 SCT008
BECMG 1418/1420 2500 BR OVC003
BECMG 1420/1424 0400 FG VV001
BECMG 1508/1510 2500 BR OVC003
BECMG 1510/1512 8000 SCT010

Seit gestern findet in den Hallen der Messe München die Electronica statt. Bis zum Sonntag
versammelt sich hier die Welt der Elektronikbranche. Rund 3000 Aussteller aus mehr als 50
Ländern informieren über aktuelle Trends, Entwicklungen und Technologien der Branche.
Rechnet also mit Nerds an Bord

Bis später !

Eure München Crew
Steffen Butenschön ist offline   Mit Zitat antworten
Alt 2018-11-21, 14:13   #473 (permalink)
 
Benutzerbild von Steffen Butenschön
 
Registriert seit: 2013-01-03
Ort: bei Berlin
Beiträge: 173
Danke erteilt: 414
457 Danksagungen in 130 Beiträgen erhalten
Standard

München Mittwoch !

Zusteigen, dabei sein!
Das Wetter verhält sich weiterhin der Jahreszeit entsprechend:

2018/11/21 12:50
EDDM 211250Z 08007KT 040V100 6000 SCT004 OVC005 01/00 Q1014 NOSI

2018/11/21 12:31
TAF EDDM 211100Z 2112/2218 07005KT 5000 BR OVC004
TEMPO 2112/2116 OVC006
BECMG 2117/2121 VRB03KT 2500 BR
BECMG 2209/2212 5000 OVC006
BECMG 2212/2214 BKN012
BECMG 2214/2216 SCT014

Apropos Jahreszeit:
"Das perfekte Symbol unserer Zeit ist der Laubbläser:
Er verlagert ein Problem von einem Ort zum anderen
ohne es zu lösen, benötigt dafür wertvolle Energie und
macht eine Menge Lärm"

Bis später!

Eure München Crew
Steffen Butenschön ist offline   Mit Zitat antworten
Alt 2018-11-28, 14:42   #474 (permalink)
 
Benutzerbild von Steffen Butenschön
 
Registriert seit: 2013-01-03
Ort: bei Berlin
Beiträge: 173
Danke erteilt: 414
457 Danksagungen in 130 Beiträgen erhalten
Standard

Ja is denn heut schon Weihnachten ?

Nein Franz, aber München Mittwoch !

Und so lädt die DFFS wieder alle Pilotinnen und Piloten herzlich ein nach München zu kommen.
Die Cockpit Crew ist aktuell ja nicht durch die Aussicht abgelenkt und so bringen wir alle
entspannt in die Luft und wieder zurück.

2018/11/28 13:20
EDDM 281320Z 11011KT 4000 BR OVC004 M01/M02 Q1025 NOSIG

EDDM 281321Z 2813/2918 09010KT 6000 OVC005
TEMPO 2813/2818 3000 BR OVC004
BECMG 2816/2818 09005KT
BECMG 2818/2821 SCT008
BECMG 2820/2823 4000 BR PROB30
TEMPO 2900/2908 1200 BCFG
BECMG 2908/2910 8000

Nach diesem schönen Mittwoch werden dann die ersten Scopes verpackt und für
den Transport nach Nürnberg vorbereitet. Da geht es dann ja am Samstag weiter:
https://board.vacc-sag.org/16/63339/

Bis später!

Eure München Crew
Steffen Butenschön ist offline   Mit Zitat antworten
Alt 2018-12-05, 19:19   #475 (permalink)
 
Benutzerbild von Steffen Butenschön
 
Registriert seit: 2013-01-03
Ort: bei Berlin
Beiträge: 173
Danke erteilt: 414
457 Danksagungen in 130 Beiträgen erhalten
Standard

München Mittwoch!

Gleich geht’s los!
Die Stationen sind spektakulär gebucht und die Kollegen stehen in den Startlöchern!
Das Wetter zeigt sich heute eher unspektakulär:

051750Z 10008KT CAVOK 03/00 Q1023 NOSIG

Bis gleich!

Eure München Crew
Steffen Butenschön ist offline   Mit Zitat antworten
Alt 2018-12-12, 07:53   #476 (permalink)
 
Benutzerbild von Steffen Butenschön
 
Registriert seit: 2013-01-03
Ort: bei Berlin
Beiträge: 173
Danke erteilt: 414
457 Danksagungen in 130 Beiträgen erhalten
Standard

Mittwochs in München

Zusätzlich zum München Mittwoch der DFFS laden diverse Weihnachtsmärkte
in die bayerische Landeshauptstadt. Für das passende Ambiente gesellt sich
auch ein wenig Schnee dazu:

EDDM 120620Z 25009KT 5000 -SN OVC007 00/M00 Q1021 R88/290095 TEMPO 4000

TAF EDDM 120500Z 1206/1312 26010KT 9999 SCT008 OVC020
TEMPO 1206/1309 BKN008
TEMPO 1206/1212 4000 -SN PROB30
TEMPO 1207/1209 1200 SN
BECMG 1210/1212 31005KT PROB30
TEMPO 1212/1309 4500 -SN
BECMG 1216/1218 03005KT
BECMG 1302/1304 08010KT

Hier noch die letzte Info aus dem Postillion Newsticker:

Durch veganes Kochen 85 Kilo losgeworden: Frau wieder Single!

Bis später!

Eure München Crew
Steffen Butenschön ist offline   Mit Zitat antworten
Alt 2018-12-19, 13:24   #477 (permalink)
 
Benutzerbild von Steffen Butenschön
 
Registriert seit: 2013-01-03
Ort: bei Berlin
Beiträge: 173
Danke erteilt: 414
457 Danksagungen in 130 Beiträgen erhalten
Standard

Münchens Mittwoch !

/Achtung durch Aktivierung des Kopfkinos und entsprechende musikalische Untermalung kann der folgende
informative Teil ein Upgrade erfahren. Dabei aber auch ungewohnte emotionale Reaktionen hervorrufen.
Zu Risiken und Nebenwirkungen fragt den Co oder die Purserin /

O Flugzeugtraum, o Flugzeugtraum,
wie treu sind Deine Flächen!
Du fliegst nicht nur zur Sommerzeit,
nein, deiced auch im Winter, wenn es schneit.
O Flugzeugtraum, o Flugzeugtraum,
wie weit trägt Deine Fläche ?



Heute doch auf jeden Fall von und nach München!
Und sollte ein Problem auftreten: das kompetente Team der DFFS bringt Euch heil wieder an den Boden!
Nun aber die Wetter Info:

EDDM 191150Z 06004KT 9999 BKN046 01/M01 Q1018 NOSIG

EDDM 191100Z 1912/2018 10004KT 9999 SCT040 PROB30
TEMPO 1921/2003 4000 -FZRA BKN013
BECMG 2002/2004 22005KT
TEMPO 2003/2009 3000 DZRA BKN012
BECMG 2011/2013 25010KT

Vorweihnachtsstress, Trubel, Hektik, Sorgen und Probleme lassen wir heute weit
hinter uns. Genießt die Atmosphäre auf den Münchner Vorfeldern, lasst die Seele
kurz auf unserem ILS baumeln oder lauscht einfach dem Gesang der Controller .
Heute zelebrieren wir einfach den vorletzten München Mittwoch 2018.
Bis später!

Eure München Crew
Steffen Butenschön ist offline   Mit Zitat antworten
Alt 2018-12-26, 10:02   #478 (permalink)
 
Benutzerbild von Steffen Butenschön
 
Registriert seit: 2013-01-03
Ort: bei Berlin
Beiträge: 173
Danke erteilt: 414
457 Danksagungen in 130 Beiträgen erhalten
Standard

Frohe Weihnachten | Merry Christmas | Feliz Navidad | Buon Natale
Joyeux Noel | Vrolijk kerstfeest | God Jul | Wesolych Swiat |


Die Geschenke sind ausgepackt, der Braten verspeist, der Weinkeller
deutlich leerer und Ihr definitiv unterflogen ! Das können wir heute in
München ändern ! Das Wetter ist nicht so wirklich weihnachtlich , aber
man kann ja nicht alles haben.

EDDM 260820Z 25006KT 9000 NSC M02/M03 Q1032 NOSIG

EDDM 260500Z 2606/2712 VRB03KT CAVOK
TEMPO 2606/2609 4000 BR

Allen die wir nicht mehr hören wünschen wir einen guten Rutsch und
alles Gute für das kommende Jahr ( die offizielle Begrüßung erfolgt dann
beim City Shuttle mit Hamburg am 5.1.2019 - save the date ! ) !

Und wir sagen DANKESCHÖN :

Liebe VATSIM Piloten,
was wäre eine spannende Geschichte ohne einen begeisterten Erzähler?
Was wäre ein mitreißendes Musikstück ohne einen Zuhörer, der sich mitreißen lässt?
Was wäre ein beeindruckendes Schauspiel ohne Zuschauer und einen gebührenden Applaus?
Was wären ein Nürnberg Montag oder ein München Mittwoch ohne Euch ?
Ihr seid unsere Erzähler, unsere Zuhörer und unsere Zuschauer zugleich.
Ihr seid Kenner, Begeisterte und treue Wegbegleiter !
Wir gehören zusammen und dafür möchten wir uns bedanken. Danke für Eure Treue, Danke
für Eure Leidenschaft, Danke für Eure Wertschätzung und Eure Entscheidung für jeden Flug
in unserem Luftraum!

Also, Euch und Euren Lieben alles Gute, Zufriedenheit und Gesundheit, denn das ist und
bleibt das Wichtigste.

Euer Team der DFFS

Steffen Butenschön ist offline   Mit Zitat antworten
Alt 2019-01-02, 09:13   #479 (permalink)
 
Benutzerbild von Steffen Butenschön
 
Registriert seit: 2013-01-03
Ort: bei Berlin
Beiträge: 173
Danke erteilt: 414
457 Danksagungen in 130 Beiträgen erhalten
Standard

Frohes Neues Jahr!

Wir hoffen alle sind gut im neuen Jahr angekommen und freuen uns
heute auf den ersten München Mittwoch des Jahres 2019 !

Das Motto " Was Du heute kannst entkorken, das verschiebe nicht auf morgen"
lassen wir dann mal wieder pausieren und so steht, wie gewohnt, die kompetente
und freundliche Crew der DFFS in den Startlöchern.
Wer immer noch ein wenig verschlafen sein sollte kann sich heute gut durchpusten
lassen:

EDDM 020750Z 28016KT 1500 SHSN FEW005 BKN010TCU BKN032 01/M02 Q1026 BECMG 5000 SCT010

EDDM 020500Z 0206/0312 30015G30KT 9999 BKN020
TEMPO 0206/0215 33020G35KT 1200 SHSNGS BKN007CB PROB30
TEMPO 0215/0219 3000 -SHSN BKN015TCU
BECMG 0216/0218 29008KT

Und am Samstag geht es dann ja gleich gut weiter! Guckst Du hier

Bis später!

Eure München Crew
Steffen Butenschön ist offline   Mit Zitat antworten
Alt 2019-01-09, 10:29   #480 (permalink)
 
Benutzerbild von Steffen Butenschön
 
Registriert seit: 2013-01-03
Ort: bei Berlin
Beiträge: 173
Danke erteilt: 414
457 Danksagungen in 130 Beiträgen erhalten
Standard

München Mittwoch

Schnee-Chaos in Bayern!
A8 voll gesperrt, mehr als 20 km Stau auf der A9, Busse und Bahnen in München vom Wetter betroffen!
Nach dem Schnee ist vor dem Schnee und so bereiten sich die Räumdienste, Behörden und
DFFS auf den nächsten heftigen Niederschlag vor.
In einigen Landkreisen fällt deshalb weiterhin der Unterricht aus und im Landkreis Miesbach bleibt der
Katastrophenalarm bestehen. Inzwischen sind die dringend benötigten Lebensmittel in der Jachenau
angekommen. „Am Wichtigsten war der Nachschub an Klopapier“, wird vor Ort berichtet.

Selbstverständlich werden wir heute den Verkehr möglichst wie gewohnt abwickeln, können
aber Verzögerungen durch Einsätze der Räumdienste, Pistensperrungen und Beeinträchtigungen auf den
Vorfeldern nicht ausschließen!

EDDM 090850Z 29011KT 9999 FEW010 BKN030 00/M01 Q1008 R88/290095 NOSIG

TAF EDDM 090500Z 0906/1012 28015G25KT 9999 SCT012 BKN020
TEMPO 0906/1012 2000 SN BKN007
BECMG 0913/0915 30010KT

Wegen des Schneechaos in Süddeutschland sind am Flughafen München am Wochenende etliche Flüge
ausgefallen. Laut einer Sprecherin waren am Samstag 130 und am Sonntag noch einmal 15 Verbindungen
betroffen. Zudem hatten Hunderte Starts über eine Stunde Verspätung. Das wird die kompetente Crew der
DFFS aber sicherlich zu verhindern wissen.

Bis später!

Eure München Crew
Steffen Butenschön ist offline   Mit Zitat antworten
Antwort

  VATSIM Germany Forum > Community > Events


Themen-Optionen
Ansicht

Forumregeln
Es ist dir nicht erlaubt, neue Themen zu verfassen.
Es ist dir nicht erlaubt, auf Beiträge zu antworten.
Es ist dir nicht erlaubt, Anhänge hochzuladen.
Es ist dir nicht erlaubt, deine Beiträge zu bearbeiten.

BB-Code ist an.
Smileys sind an.
[IMG] Code ist an.
HTML-Code ist aus.
Trackbacks are an
Pingbacks are an
Refbacks are an



Alle Zeitangaben in WEZ +2. Es ist jetzt 00:03 Uhr.


Powered by vBulletin® Version 3.8.4 (Deutsch)
Copyright ©2000 - 2019, Jelsoft Enterprises Ltd.
Template-Modifikationen durch TMS
© 2006 - 2018 vatsim-germany.org